Time;durP1;ratioP1;P1;durP2;ratioP2;P2;SDS_P1;SDS_P2;PMS_P1;PMS_P2;Temp;Humidity;BMP_temperature;BMP_pressure;BME280_temperature;BME280_humidity;BME280_pressure;Samples;Min_cycle;Max_cycle;Signal;HPM_P1;HPM_P2
2022/08/04 00:00:15;;;;;;;9.95;4.07;;;;;;;23.43;79.22;101057.47;5087785;28;20074;-74
2022/08/04 00:03:12;;;;;;;10.98;4.38;;;;;;;23.45;79.94;101057.16;5073868;28;20032;-73
2022/08/04 00:06:00;;;;;;;12.05;3.88;;;;;;;23.40;80.43;101054.50;5086648;28;20032;-73
2022/08/04 00:08:25;;;;;;;11.00;4.15;;;;;;;23.33;81.42;101055.72;5072556;28;20036;-73
2022/08/04 00:10:55;;;;;;;13.77;4.10;;;;;;;23.26;81.21;101055.31;5087524;28;20054;-72
2022/08/04 00:13:25;;;;;;;10.00;3.90;;;;;;;23.25;81.78;101058.38;5076403;28;20021;-73
2022/08/04 00:15:57;;;;;;;7.45;3.65;;;;;;;23.24;82.74;101048.47;5080256;28;20028;-73
2022/08/04 00:18:28;;;;;;;10.63;3.72;;;;;;;23.18;83.35;101048.56;5072228;28;20044;-72
2022/08/04 00:20:57;;;;;;;;;;;;;;;23.39;77.67;101048.16;5089850;28;20038;-73
2022/08/04 00:23:25;;;;;;;10.02;3.95;;;;;;;23.24;81.01;101045.72;5090598;28;20281;-72
2022/08/04 00:25:52;;;;;;;9.65;3.90;;;;;;;23.23;80.98;101042.13;5090552;28;20024;-75
2022/08/04 00:28:18;;;;;;;10.50;3.95;;;;;;;23.21;81.37;101040.81;5081107;28;20025;-73
2022/08/04 00:30:43;;;;;;;13.88;3.75;;;;;;;23.21;80.98;101047.13;5086999;28;20121;-73
2022/08/04 00:33:09;;;;;;;10.68;3.42;;;;;;;23.25;78.38;101044.56;5078247;28;20117;-73
2022/08/04 00:35:36;;;;;;;8.25;3.50;;;;;;;23.21;79.51;101038.03;5080434;28;20462;-73
2022/08/04 00:38:02;;;;;;;10.80;3.63;;;;;;;23.23;77.08;101033.03;5087841;28;20276;-74
2022/08/04 00:41:05;;;;;;;9.35;3.60;;;;;;;23.27;76.33;101034.88;5087283;28;20140;-73
2022/08/04 00:43:35;;;;;;;9.30;3.20;;;;;;;23.19;79.41;101032.84;5087869;28;20020;-73
2022/08/04 00:46:25;;;;;;;14.50;3.40;;;;;;;23.23;78.03;101027.50;5088121;28;20036;-75
2022/08/04 00:49:21;;;;;;;10.88;3.47;;;;;;;23.16;76.20;101027.94;5077938;28;20043;-74
2022/08/04 00:51:55;;;;;;;11.88;3.90;;;;;;;23.13;75.21;101028.50;5090091;28;20028;-75
2022/08/04 00:54:54;;;;;;;9.05;3.53;;;;;;;23.15;77.37;101018.81;5080014;28;20024;-74
2022/08/04 00:57:56;;;;;;;10.57;3.30;;;;;;;23.15;74.24;101021.56;5074113;28;20448;-75
2022/08/04 01:00:22;;;;;;;9.93;3.42;;;;;;;23.07;75.86;101025.03;5082550;28;20081;-73
2022/08/04 01:02:50;;;;;;;13.23;3.60;;;;;;;23.12;75.43;101021.38;5086069;28;20367;-72
2022/08/04 01:05:56;;;;;;;10.93;4.13;;;;;;;23.15;76.39;101020.75;5088166;28;20032;-73
2022/08/04 01:08:52;;;;;;;6.68;3.25;;;;;;;23.20;75.42;101020.66;5090251;28;20028;-72
2022/08/04 01:11:30;;;;;;;11.50;3.55;;;;;;;23.07;74.06;101019.50;5076787;28;20478;-72
2022/08/04 01:14:19;;;;;;;7.47;2.80;;;;;;;23.08;75.56;101012.84;5086736;28;20028;-72
2022/08/04 01:16:51;;;;;;;12.45;3.38;;;;;;;23.05;75.35;101005.16;5086126;28;20079;-72
2022/08/04 01:19:52;;;;;;;17.95;3.42;;;;;;;23.11;73.11;101001.22;5090121;28;20041;-72
2022/08/04 01:22:33;;;;;;;10.52;3.20;;;;;;;23.01;75.06;101001.41;5072116;28;20024;-72
2022/08/04 01:25:37;;;;;;;13.73;3.47;;;;;;;23.12;72.77;101004.81;5077537;28;20509;-72
2022/08/04 01:28:24;;;;;;;9.85;3.17;;;;;;;23.11;72.38;101006.72;5080790;28;20089;-72
2022/08/04 01:30:56;;;;;;;8.40;2.90;;;;;;;23.04;71.63;100998.03;5083331;28;20024;-73
2022/08/04 01:33:24;;;;;;;10.55;3.10;;;;;;;23.11;72.35;100994.88;5090144;28;20031;-72
2022/08/04 01:36:04;;;;;;;7.03;3.60;;;;;;;23.09;71.67;100991.59;5089939;28;20031;-71
2022/08/04 01:38:35;;;;;;;10.48;3.10;;;;;;;23.00;70.99;100991.47;5092118;28;20027;-71
2022/08/04 01:41:06;;;;;;;10.10;3.17;;;;;;;22.99;71.43;100987.06;5089700;28;20020;-72
2022/08/04 01:43:42;;;;;;;9.38;3.60;;;;;;;23.01;72.19;100988.41;5081039;28;20056;-74
2022/08/04 01:46:12;;;;;;;8.60;2.92;;;;;;;23.02;71.53;100989.22;5087852;28;20034;-73
2022/08/04 01:48:43;;;;;;;11.93;3.55;;;;;;;22.97;70.79;100983.81;5091066;28;20040;-72
2022/08/04 01:51:09;;;;;;;14.23;3.53;;;;;;;22.99;70.76;100978.78;5093455;28;20077;-72
2022/08/04 01:53:39;;;;;;;10.43;3.10;;;;;;;22.92;73.40;100984.72;5093218;28;20036;-71
2022/08/04 01:56:07;;;;;;;12.10;3.30;;;;;;;22.92;72.41;100989.44;5082405;28;20032;-71
2022/08/04 01:58:35;;;;;;;14.30;3.45;;;;;;;22.96;69.65;100979.41;5078289;28;20504;-72
2022/08/04 02:01:04;;;;;;;13.45;3.10;;;;;;;22.91;71.58;100980.31;5086531;28;20431;-72
2022/08/04 02:03:30;;;;;;;12.40;3.63;;;;;;;22.94;71.89;100970.63;5092917;28;20020;-71
2022/08/04 02:06:08;;;;;;;10.13;3.20;;;;;;;22.97;70.94;100981.06;5092817;28;20036;-72
2022/08/04 02:08:53;;;;;;;9.80;2.58;;;;;;;22.91;70.44;100979.53;5090406;28;20027;-73
2022/08/04 02:11:23;;;;;;;14.10;2.60;;;;;;;22.90;69.71;100972.34;5094579;28;20031;-73
2022/08/04 02:14:08;;;;;;;14.68;3.10;;;;;;;22.96;69.68;100971.13;5092632;28;20028;-72
2022/08/04 02:16:48;;;;;;;10.75;2.65;;;;;;;22.93;69.20;100969.81;5091723;28;20047;-72
2022/08/04 02:19:16;;;;;;;9.30;2.70;;;;;;;22.88;70.36;100969.09;5092780;28;20119;-72
2022/08/04 02:21:47;;;;;;;10.68;3.15;;;;;;;22.82;70.39;100952.63;5092649;28;20024;-72
2022/08/04 02:24:13;;;;;;;;;;;;;;;23.03;69.51;100956.94;5096963;28;20020;-73
2022/08/04 02:26:49;;;;;;;11.15;3.00;;;;;;;22.93;69.64;100963.47;5091026;28;19908;-72
2022/08/04 02:29:23;;;;;;;10.40;2.80;;;;;;;22.89;70.85;100959.66;5075452;28;20020;-75
2022/08/04 02:32:02;;;;;;;10.52;2.80;;;;;;;22.99;68.25;100946.50;5088661;28;20028;-72
2022/08/04 02:34:55;;;;;;;8.30;2.60;;;;;;;22.96;67.97;100951.81;5092136;28;20054;-74
2022/08/04 02:37:23;;;;;;;11.30;2.83;;;;;;;22.91;68.98;100954.69;5093906;28;20036;-74
2022/08/04 02:39:52;;;;;;;10.45;2.65;;;;;;;22.88;69.70;100947.81;5100799;28;20012;-74
2022/08/04 02:42:18;;;;;;;9.75;2.60;;;;;;;22.90;69.94;100944.75;5082333;28;20039;-70
2022/08/04 02:44:50;;;;;;;13.25;2.88;;;;;;;22.94;68.86;100943.84;5084202;28;20021;-71
2022/08/04 02:47:20;;;;;;;10.27;3.08;;;;;;;22.90;68.89;100936.47;5081055;28;20077;-73
2022/08/04 02:49:49;;;;;;;14.43;2.78;;;;;;;22.94;67.52;100932.81;5077647;28;20020;-71
2022/08/04 02:52:17;;;;;;;10.10;2.53;;;;;;;22.95;68.20;100941.91;5079497;28;20025;-73
2022/08/04 02:54:45;;;;;;;10.75;2.33;;;;;;;22.91;69.89;100929.84;5101547;28;20024;-74
2022/08/04 02:57:12;;;;;;;12.07;2.53;;;;;;;22.90;68.38;100930.97;5087766;28;20077;-70
2022/08/04 02:59:56;;;;;;;8.18;2.33;;;;;;;22.94;67.91;100920.97;5075514;28;20111;-74
2022/08/04 03:02:32;;;;;;;10.65;2.75;;;;;;;22.90;68.06;100919.94;5082724;28;20452;-73
2022/08/04 03:05:06;;;;;;;11.48;2.55;;;;;;;22.93;67.43;100922.06;5091570;28;20027;-73
2022/08/04 03:08:24;;;;;;;13.52;2.80;;;;;;;22.89;68.46;100921.03;5091214;28;20074;-72
2022/08/04 03:11:19;;;;;;;12.80;2.78;;;;;;;22.89;69.00;100921.88;5062110;28;20478;-71
2022/08/04 03:13:47;;;;;;;9.52;2.88;;;;;;;22.82;68.08;100925.03;5072177;28;20020;-71
2022/08/04 03:16:50;;;;;;;10.40;2.92;;;;;;;22.91;67.47;100927.09;5087702;28;20081;-70
2022/08/04 03:19:42;;;;;;;11.75;2.50;;;;;;;22.85;67.56;100945.69;5072426;28;20049;-73
2022/08/04 03:22:23;;;;;;;9.13;2.45;;;;;;;22.86;66.90;100965.81;5042350;28;20052;-71
2022/08/04 03:25:00;;;;;;;9.95;2.80;;;;;;;22.74;67.33;100972.66;5077979;28;20024;-71
2022/08/04 03:27:47;;;;;;;12.00;2.90;;;;;;;22.61;67.90;100962.41;5075819;28;20093;-70
2022/08/04 03:31:03;;;;;;;14.70;3.42;;;;;;;22.55;68.02;100947.09;5081300;28;20024;-70
2022/08/04 03:33:47;;;;;;;12.32;2.55;;;;;;;22.46;69.69;100945.03;5048309;28;20032;-70
2022/08/04 03:36:37;;;;;;;12.55;2.80;;;;;;;22.32;69.46;100940.59;5088063;28;20032;-71
2022/08/04 03:39:02;;;;;;;10.35;2.83;;;;;;;22.22;70.07;100944.31;5091994;28;20027;-71
2022/08/04 03:41:47;;;;;;;10.27;3.20;;;;;;;22.04;70.76;100938.56;5076610;28;20043;-73
2022/08/04 03:44:34;;;;;;;11.90;3.00;;;;;;;21.94;71.73;100944.22;5088214;28;20359;-73
2022/08/04 03:47:38;;;;;;;10.05;3.30;;;;;;;21.95;71.65;100954.94;5071263;28;20122;-73
2022/08/04 03:50:21;;;;;;;17.88;3.10;;;;;;;21.76;72.74;100959.63;5079464;28;20550;-72
2022/08/04 03:53:08;;;;;;;9.23;3.13;;;;;;;21.68;73.14;100971.31;5089394;28;20028;-73
2022/08/04 03:55:56;;;;;;;16.00;3.85;;;;;;;21.55;73.64;100970.94;5083894;28;20046;-73
2022/08/04 03:58:37;;;;;;;13.60;3.70;;;;;;;21.35;75.79;100983.00;5072829;28;20028;-71
2022/08/04 04:01:30;;;;;;;17.35;3.90;;;;;;;21.29;76.23;100978.69;5083808;28;20016;-72
2022/08/04 04:04:11;;;;;;;18.23;3.88;;;;;;;21.19;77.54;100973.28;5075610;28;20031;-73
2022/08/04 04:06:58;;;;;;;20.80;3.70;;;;;;;21.15;78.05;100978.56;5088121;28;20024;-73
2022/08/04 04:10:09;;;;;;;12.38;3.92;;;;;;;21.15;77.95;100983.25;5078552;28;20063;-73
2022/08/04 04:12:48;;;;;;;11.50;3.67;;;;;;;21.10;79.40;100977.81;5075556;28;20085;-74
2022/08/04 04:15:49;;;;;;;15.07;4.43;;;;;;;21.09;79.47;100979.75;5085762;28;20074;-72
2022/08/04 04:18:42;;;;;;;11.85;3.88;;;;;;;21.08;80.28;100977.28;5072446;28;20044;-72
2022/08/04 04:21:31;;;;;;;12.45;4.20;;;;;;;21.06;81.20;100977.56;5077242;28;20020;-71
2022/08/04 04:24:24;;;;;;;12.18;4.18;;;;;;;21.16;80.14;100974.69;5070409;28;20501;-72
2022/08/04 04:27:09;;;;;;;9.32;3.75;;;;;;;21.17;81.98;100970.84;5080308;28;20019;-71
2022/08/04 04:29:59;;;;;;;10.18;3.70;;;;;;;21.17;82.99;100970.84;5090305;28;20161;-70
2022/08/04 04:32:39;;;;;;;8.30;3.72;;;;;;;21.18;83.10;100977.16;5080278;28;21228;-71
2022/08/04 04:35:19;;;;;;;16.63;4.18;;;;;;;21.17;84.94;100975.53;5076462;28;20036;-70
2022/08/04 04:37:54;;;;;;;13.48;4.40;;;;;;;21.22;83.62;100980.97;5079420;28;20396;-71
2022/08/04 04:40:43;;;;;;;9.73;3.88;;;;;;;21.20;82.08;100974.94;5084636;28;20029;-72
2022/08/04 04:43:14;;;;;;;14.05;3.92;;;;;;;21.21;83.65;100971.06;5072424;28;20033;-71
2022/08/04 04:45:52;;;;;;;;;;;;;;;21.38;79.67;100976.09;5088471;28;20039;-71
2022/08/04 04:48:53;;;;;;;12.93;4.05;;;;;;;21.34;82.54;100973.09;5073293;28;19919;-70
2022/08/04 04:51:18;;;;;;;12.55;4.50;;;;;;;21.35;82.35;100979.44;5046044;28;20353;-72
2022/08/04 04:54:11;;;;;;;12.40;4.35;;;;;;;21.43;84.35;100985.09;5085036;28;20058;-72
2022/08/04 04:56:44;;;;;;;13.15;4.10;;;;;;;21.42;84.67;100977.97;5086990;28;20035;-71
2022/08/04 04:59:11;;;;;;;17.90;4.65;;;;;;;21.52;83.18;100981.72;5081013;28;20059;-72
2022/08/04 05:01:43;;;;;;;14.10;4.57;;;;;;;21.50;84.43;100993.03;5086066;28;20106;-72
2022/08/04 05:04:42;;;;;;;17.35;4.65;;;;;;;21.55;83.67;101001.22;5077153;28;20041;-71
2022/08/04 05:07:39;;;;;;;15.35;4.43;;;;;;;21.61;82.09;100990.16;5072311;28;20032;-71
2022/08/04 05:10:32;;;;;;;12.60;4.38;;;;;;;21.64;85.15;100992.31;5079020;28;20040;-71
2022/08/04 05:13:30;;;;;;;13.25;4.50;;;;;;;21.64;85.28;100982.09;5090633;28;20459;-72
2022/08/04 05:16:14;;;;;;;11.18;3.88;;;;;;;21.64;86.25;100978.53;5090400;28;20459;-70
2022/08/04 05:18:44;;;;;;;12.55;4.20;;;;;;;21.69;85.08;100987.53;5095891;28;20127;-72
2022/08/04 05:21:32;;;;;;;17.15;4.00;;;;;;;21.72;85.67;100995.19;5090694;28;20747;-71
2022/08/04 05:24:03;;;;;;;17.67;4.55;;;;;;;21.71;84.89;100996.34;5084229;28;20447;-71
2022/08/04 05:26:34;;;;;;;11.93;4.22;;;;;;;21.74;84.75;100995.75;5090326;28;20532;-71
2022/08/04 05:29:06;;;;;;;13.75;3.78;;;;;;;21.66;88.96;100985.38;5094837;28;20032;-70
2022/08/04 05:31:38;;;;;;;14.55;4.30;;;;;;;21.75;91.53;100982.78;5090287;28;20058;-71
2022/08/04 05:34:11;;;;;;;10.93;4.20;;;;;;;21.77;93.16;100973.09;5093073;28;20039;-70
2022/08/04 05:36:41;;;;;;;15.50;4.28;;;;;;;21.83;89.77;100981.28;5091210;28;20024;-71
2022/08/04 05:39:12;;;;;;;16.08;4.40;;;;;;;21.92;91.84;100977.56;5087731;28;20028;-71
2022/08/04 05:41:38;;;;;;;12.27;4.38;;;;;;;21.96;91.64;100969.53;5081097;28;20024;-73
2022/08/04 05:44:08;;;;;;;7.55;3.55;;;;;;;22.05;92.80;100961.41;5082235;28;20020;-71
2022/08/04 05:46:35;;;;;;;20.63;5.18;;;;;;;22.15;90.50;100961.25;5079149;28;20081;-72
2022/08/04 05:49:01;;;;;;;13.27;4.28;;;;;;;22.21;90.52;100968.31;5084911;28;20886;-73
2022/08/04 05:51:29;;;;;;;15.70;4.43;;;;;;;22.26;94.06;100967.41;5075061;28;20082;-73
2022/08/04 05:53:58;;;;;;;13.82;3.75;;;;;;;22.30;94.99;100974.75;5076298;28;20024;-76
2022/08/04 05:56:25;;;;;;;21.23;4.45;;;;;;;22.33;87.01;100976.13;5073534;28;20570;-71
2022/08/04 05:58:51;;;;;;;23.60;4.93;;;;;;;22.35;83.50;100973.88;5074819;28;20460;-72
2022/08/04 06:01:19;;;;;;;26.10;5.25;;;;;;;22.33;85.51;100978.91;5072619;28;20024;-71
2022/08/04 06:03:46;;;;;;;18.17;4.90;;;;;;;22.25;86.69;100976.78;5074869;28;20109;-73
2022/08/04 06:06:13;;;;;;;21.58;6.53;;;;;;;22.08;87.16;100980.91;5086752;28;20048;-74
2022/08/04 06:08:38;;;;;;;17.83;6.30;;;;;;;21.99;85.95;100979.94;5084000;28;20032;-73
2022/08/04 06:11:06;;;;;;;21.13;7.03;;;;;;;21.84;86.95;100982.94;5092503;28;20032;-68
2022/08/04 06:13:42;;;;;;;21.02;6.78;;;;;;;21.76;88.42;100979.72;5092987;28;20028;-69
2022/08/04 06:16:08;;;;;;;24.40;7.00;;;;;;;21.73;90.26;100985.81;5093001;28;20027;-69
2022/08/04 06:18:36;;;;;;;21.35;6.65;;;;;;;21.66;90.22;100976.31;5086408;28;20367;-70
2022/08/04 06:21:05;;;;;;;18.52;7.30;;;;;;;21.63;90.92;100983.22;5074621;28;20040;-72
2022/08/04 06:23:33;;;;;;;13.27;7.28;;;;;;;21.63;91.87;100985.16;5087790;28;20509;-71
2022/08/04 06:26:00;;;;;;;18.15;7.78;;;;;;;21.64;90.82;100986.81;5093160;28;20481;-71
2022/08/04 06:28:28;;;;;;;25.17;7.85;;;;;;;21.70;89.92;100991.13;5094104;28;20410;-71
2022/08/04 06:30:54;;;;;;;20.77;7.68;;;;;;;21.82;87.96;100993.44;5094318;28;20020;-71
2022/08/04 06:33:32;;;;;;;22.98;9.00;;;;;;;21.89;87.74;100991.09;5094478;28;20359;-71
2022/08/04 06:36:00;;;;;;;23.50;7.55;;;;;;;21.99;86.73;100990.97;5094228;28;20107;-71
2022/08/04 06:38:28;;;;;;;19.55;7.55;;;;;;;22.06;86.96;100990.59;5094581;28;20028;-71
2022/08/04 06:40:58;;;;;;;16.10;7.95;;;;;;;22.19;86.11;100995.31;5093022;28;20027;-71
2022/08/04 06:43:25;;;;;;;18.92;8.18;;;;;;;22.31;90.46;101003.16;5094483;28;20400;-71
2022/08/04 06:45:54;;;;;;;26.67;7.63;;;;;;;22.48;85.45;101002.63;5093838;28;20020;-71
2022/08/04 06:48:20;;;;;;;19.40;7.38;;;;;;;22.65;85.61;100999.31;5094256;28;20084;-71
2022/08/04 06:50:47;;;;;;;14.88;7.90;;;;;;;22.73;83.79;100995.84;5093898;28;20113;-71
2022/08/04 06:53:13;;;;;;;18.15;7.60;;;;;;;22.80;82.17;101003.72;5094385;28;20024;-71
2022/08/04 06:55:41;;;;;;;19.60;7.57;;;;;;;22.86;83.99;101008.03;5093985;28;20022;-71
2022/08/04 06:58:09;;;;;;;19.83;7.63;;;;;;;22.91;83.18;101012.63;5093644;28;20484;-71
2022/08/04 07:00:35;;;;;;;14.40;7.28;;;;;;;22.88;82.28;101007.72;5091645;28;20111;-71
2022/08/04 07:03:02;;;;;;;19.83;8.23;;;;;;;22.90;84.06;101002.72;5093929;28;20031;-71
2022/08/04 07:05:28;;;;;;;17.58;8.02;;;;;;;22.87;82.43;101004.13;5094129;28;20389;-71
2022/08/04 07:07:55;;;;;;;22.67;7.70;;;;;;;22.85;82.80;101003.63;5093520;28;20433;-71
2022/08/04 07:10:22;;;;;;;21.58;7.20;;;;;;;22.80;83.07;100996.25;5094059;28;20035;-71
2022/08/04 07:12:48;;;;;;;17.98;7.53;;;;;;;22.74;83.43;100999.44;5093806;28;20024;-71
2022/08/04 07:15:17;;;;;;;22.70;7.63;;;;;;;22.79;84.20;101008.41;5094405;28;20477;-71
2022/08/04 07:17:43;;;;;;;11.45;6.88;;;;;;;22.75;84.46;101012.09;5093539;28;20043;-71
2022/08/04 07:20:09;;;;;;;14.25;7.32;;;;;;;22.78;84.80;101012.31;5093729;28;20030;-71
2022/08/04 07:22:35;;;;;;;15.40;7.38;;;;;;;22.82;85.92;101009.75;5093792;28;20020;-71
2022/08/04 07:25:00;;;;;;;20.38;8.07;;;;;;;22.79;83.81;101007.59;5093571;28;20035;-71
2022/08/04 07:27:26;;;;;;;19.60;8.57;;;;;;;22.87;84.62;101011.59;5093734;28;20024;-71
2022/08/04 07:29:52;;;;;;;18.27;7.50;;;;;;;22.93;85.62;101013.13;5093487;28;20066;-71
2022/08/04 07:32:20;;;;;;;20.77;7.32;;;;;;;22.99;84.91;101022.94;5093937;28;20031;-71
2022/08/04 07:34:50;;;;;;;14.77;8.02;;;;;;;23.04;84.40;101025.63;5093588;28;20028;-71
2022/08/04 07:37:16;;;;;;;18.30;7.93;;;;;;;23.16;84.90;101023.22;5093554;28;20027;-71
2022/08/04 07:39:41;;;;;;;18.55;7.30;;;;;;;23.23;84.80;101021.97;5092638;28;20450;-71
2022/08/04 07:42:07;;;;;;;18.98;7.38;;;;;;;23.31;82.22;101015.72;5093215;28;20934;-71
2022/08/04 07:44:34;;;;;;;17.73;7.22;;;;;;;23.43;82.92;101018.81;5093412;28;20035;-71
2022/08/04 07:47:02;;;;;;;12.75;7.15;;;;;;;23.48;80.67;101015.94;5091755;28;20102;-71
2022/08/04 07:49:28;;;;;;;16.70;7.85;;;;;;;23.60;81.27;101020.94;5093331;28;20028;-71
2022/08/04 07:51:53;;;;;;;18.23;7.40;;;;;;;23.71;80.05;101016.81;5093124;28;20023;-71
2022/08/04 07:54:19;;;;;;;17.52;7.43;;;;;;;23.75;78.69;101022.56;5093228;28;20035;-71
2022/08/04 07:56:47;;;;;;;13.15;7.60;;;;;;;23.80;79.60;101019.66;5091874;28;20032;-71
2022/08/04 07:59:14;;;;;;;13.38;7.60;;;;;;;23.89;78.37;101019.78;5092919;28;20032;-71
2022/08/04 08:01:40;;;;;;;20.63;7.53;;;;;;;23.97;78.94;101027.31;5090646;28;20112;-71
2022/08/04 08:04:06;;;;;;;14.23;7.75;;;;;;;24.01;78.72;101033.88;5091657;28;20543;-71
2022/08/04 08:06:34;;;;;;;17.55;7.25;;;;;;;24.13;77.63;101043.56;5092980;28;20024;-71
2022/08/04 08:09:05;;;;;;;14.02;7.30;;;;;;;24.15;77.53;101047.66;5092557;28;20085;-71
2022/08/04 08:11:31;;;;;;;17.75;8.05;;;;;;;24.18;77.88;101041.50;5093010;28;20066;-71
2022/08/04 08:13:56;;;;;;;17.55;7.60;;;;;;;24.22;77.59;101045.28;5092731;28;20051;-71
2022/08/04 08:16:22;;;;;;;16.33;6.03;;;;;;;24.34;75.94;101044.72;5092891;28;20359;-71
2022/08/04 08:18:47;;;;;;;14.38;6.60;;;;;;;24.35;74.96;101049.13;5092793;28;20371;-71
2022/08/04 08:21:13;;;;;;;17.80;6.15;;;;;;;24.43;74.51;101044.78;5091174;28;20031;-71
2022/08/04 08:23:39;;;;;;;10.95;5.55;;;;;;;24.44;75.60;101046.41;5092955;28;20024;-71
2022/08/04 08:26:05;;;;;;;14.30;5.00;;;;;;;24.47;73.18;101040.25;5092669;28;20466;-71
2022/08/04 08:28:30;;;;;;;16.52;4.78;;;;;;;24.48;70.88;101039.13;5091415;28;20039;-71
2022/08/04 08:30:56;;;;;;;9.45;3.92;;;;;;;24.58;71.30;101049.16;5092206;28;20028;-71
2022/08/04 08:33:23;;;;;;;7.15;3.60;;;;;;;24.58;71.06;101054.69;5092733;28;20024;-71
2022/08/04 08:36:00;;;;;;;12.82;4.18;;;;;;;24.55;70.88;101061.63;5091389;28;20359;-71
2022/08/04 08:38:38;;;;;;;12.38;3.75;;;;;;;24.52;71.50;101062.25;5092576;28;20410;-71
2022/08/04 08:41:28;;;;;;;11.57;3.90;;;;;;;24.59;71.40;101059.91;5092409;28;20024;-71
2022/08/04 08:44:27;;;;;;;12.60;3.63;;;;;;;24.71;71.31;101069.56;5092189;28;20099;-71
2022/08/04 08:47:16;;;;;;;14.23;3.35;;;;;;;24.76;70.18;101069.47;5092682;28;20024;-71
2022/08/04 08:50:00;;;;;;;16.00;2.95;;;;;;;24.83;69.27;101067.03;5092472;28;20024;-72
2022/08/04 08:52:46;;;;;;;10.10;2.78;;;;;;;24.92;68.89;101076.19;5095369;28;20063;-71
2022/08/04 08:55:23;;;;;;;12.65;2.88;;;;;;;24.94;68.33;101085.03;5096515;28;20347;-71
2022/08/04 08:58:07;;;;;;;13.75;2.35;;;;;;;25.08;67.78;101086.91;5096525;28;20024;-71
2022/08/04 09:00:44;;;;;;;8.48;2.67;;;;;;;25.07;67.63;101074.97;5094156;28;20020;-71
2022/08/04 09:03:46;;;;;;;10.95;2.58;;;;;;;25.18;67.94;101077.47;5096490;28;20111;-71
2022/08/04 09:06:30;;;;;;;11.05;2.58;;;;;;;25.20;65.25;101083.50;5095035;28;20031;-71
2022/08/04 09:09:18;;;;;;;13.60;2.78;;;;;;;25.25;66.22;101089.72;5096266;28;20031;-72
2022/08/04 09:12:26;;;;;;;10.38;2.85;;;;;;;25.25;66.37;101089.72;5095879;28;20106;-71
2022/08/04 09:15:09;;;;;;;9.82;2.63;;;;;;;25.30;65.55;101086.03;5075464;28;20301;-71
2022/08/04 09:17:52;;;;;;;14.68;3.05;;;;;;;25.34;66.22;101080.69;5096087;28;20374;-71
2022/08/04 09:20:29;;;;;;;11.20;2.63;;;;;;;25.38;65.59;101084.44;5095972;28;20066;-73
2022/08/04 09:23:11;;;;;;;12.75;2.40;;;;;;;25.44;66.45;101083.97;5095964;28;20174;-73
2022/08/04 09:25:46;;;;;;;9.77;2.80;;;;;;;25.48;64.91;101089.69;5096153;28;20413;-71
2022/08/04 09:28:26;;;;;;;13.48;2.78;;;;;;;25.55;64.64;101092.81;5095834;28;20024;-71
2022/08/04 09:30:57;;;;;;;13.88;2.75;;;;;;;25.58;61.70;101094.13;5094662;28;20016;-71
2022/08/04 09:33:33;;;;;;;12.35;2.20;;;;;;;25.54;60.34;101104.22;5095983;28;20050;-71
2022/08/04 09:36:26;;;;;;;11.50;2.35;;;;;;;25.61;60.91;101105.38;5096039;28;20028;-74
2022/08/04 09:39:20;;;;;;;13.85;2.50;;;;;;;25.56;59.55;101105.53;5095877;28;20054;-71
2022/08/04 09:42:10;;;;;;;12.73;2.05;;;;;;;25.53;61.38;101114.50;5094507;28;20358;-71
2022/08/04 09:44:52;;;;;;;12.30;2.33;;;;;;;25.57;61.34;101118.25;5094500;28;20020;-72
2022/08/04 09:47:28;;;;;;;11.20;2.30;;;;;;;25.54;59.40;101127.19;5095408;28;20360;-73
2022/08/04 09:50:07;;;;;;;13.57;2.65;;;;;;;25.54;59.57;101131.94;5095699;28;20024;-71
2022/08/04 09:52:48;;;;;;;8.32;2.28;;;;;;;25.56;60.16;101133.25;5095668;28;20127;-71
2022/08/04 09:55:23;;;;;;;;;;;;;;;25.54;61.09;101132.72;5095951;28;20103;-72
2022/08/04 09:57:56;;;;;;;13.95;2.20;;;;;;;25.47;60.82;101143.47;5095919;28;19911;-71
2022/08/04 10:00:28;;;;;;;19.27;2.75;;;;;;;25.41;61.36;101145.56;5094854;28;20398;-73
2022/08/04 10:02:59;;;;;;;15.55;2.42;;;;;;;25.37;61.81;101149.28;5094035;28;20020;-71
2022/08/04 10:05:35;;;;;;;15.10;2.95;;;;;;;25.31;62.00;101145.03;5095375;28;20031;-71
2022/08/04 10:08:26;;;;;;;11.23;2.63;;;;;;;25.24;63.18;101145.44;5095405;28;20028;-70
2022/08/04 10:11:16;;;;;;;13.63;2.90;;;;;;;25.18;63.40;101138.41;5095352;28;20443;-73
2022/08/04 10:13:51;;;;;;;16.48;2.75;;;;;;;24.99;64.59;101136.66;5095497;28;20016;-71
2022/08/04 10:16:46;;;;;;;9.20;2.50;;;;;;;24.92;65.14;101163.97;5095172;28;20020;-72
2022/08/04 10:19:21;;;;;;;14.75;3.33;;;;;;;24.79;65.73;101189.75;5094575;28;20068;-73
2022/08/04 10:21:54;;;;;;;15.35;2.78;;;;;;;24.74;66.74;101215.59;5095370;28;20024;-72
2022/08/04 10:24:35;;;;;;;13.00;2.85;;;;;;;24.64;67.08;101232.44;5094742;28;20016;-71
2022/08/04 10:27:08;;;;;;;21.63;2.67;;;;;;;24.49;69.70;101228.88;5094731;28;20095;-71
2022/08/04 10:29:43;;;;;;;14.95;3.08;;;;;;;24.29;71.54;101218.22;5094922;28;20020;-71
2022/08/04 10:32:24;;;;;;;18.58;3.35;;;;;;;24.10;74.65;101227.47;5094645;28;20046;-70
2022/08/04 10:34:55;;;;;;;26.33;3.83;;;;;;;23.92;77.11;101222.88;5094957;28;20028;-71
2022/08/04 10:37:28;;;;;;;16.55;3.60;;;;;;;23.68;92.59;101198.97;5094610;28;20035;-70
2022/08/04 10:43:31;;;;;;;9.35;3.35;;;;;;;23.51;100.00;101156.19;5094175;28;20472;-72
2022/08/04 10:46:04;;;;;;;17.08;3.08;;;;;;;23.49;100.00;101136.34;5094622;28;20023;-71
2022/08/04 10:48:52;;;;;;;10.70;3.30;;;;;;;23.48;100.00;101129.16;5094321;28;20059;-73
2022/08/04 10:51:26;;;;;;;12.68;3.42;;;;;;;23.37;100.00;101141.56;5094246;28;20356;-72
2022/08/04 10:53:58;;;;;;;10.75;3.10;;;;;;;23.31;100.00;101143.59;5094402;28;20099;-71
2022/08/04 10:56:43;;;;;;;12.98;3.75;;;;;;;23.39;100.00;101136.53;5094122;28;20063;-71
2022/08/04 10:59:31;;;;;;;10.20;3.30;;;;;;;23.50;100.00;101151.78;5094017;28;20027;-71
2022/08/04 11:02:04;;;;;;;13.88;3.67;;;;;;;23.50;100.00;101164.78;5082134;28;20397;-71
2022/08/04 11:04:50;;;;;;;8.55;3.53;;;;;;;23.45;100.00;101173.97;5094193;28;20397;-71
2022/08/04 11:07:17;;;;;;;14.45;3.53;;;;;;;23.36;100.00;101175.81;5093618;28;20425;-71
2022/08/04 11:09:45;;;;;;;9.70;3.83;;;;;;;23.25;100.00;101164.13;5092815;28;20354;-71
2022/08/04 11:12:20;;;;;;;10.70;3.80;;;;;;;23.18;100.00;101158.97;5093824;28;20355;-72
2022/08/04 11:15:17;;;;;;;11.43;3.85;;;;;;;23.22;100.00;101147.31;5092756;28;20512;-70
2022/08/04 11:17:46;;;;;;;9.40;3.40;;;;;;;23.22;100.00;101139.03;5092458;28;20042;-71
2022/08/04 11:20:35;;;;;;;15.25;4.30;;;;;;;23.20;100.00;101146.81;5093607;28;20024;-71
2022/08/04 11:23:07;;;;;;;9.00;4.32;;;;;;;23.21;100.00;101145.72;5093607;28;20027;-71
2022/08/04 11:25:49;;;;;;;12.20;4.60;;;;;;;23.33;100.00;101143.28;5093851;28;20027;-72
2022/08/04 11:28:33;;;;;;;;;;;;;;;23.50;100.00;101142.69;5092740;28;20024;-71
2022/08/04 11:31:05;;;;;;;12.93;3.97;;;;;;;23.54;100.00;101138.19;5093696;28;20272;-70
2022/08/04 11:33:36;;;;;;;8.95;4.10;;;;;;;23.64;100.00;101145.44;5093351;28;20405;-71
2022/08/04 11:36:07;;;;;;;13.82;4.47;;;;;;;23.85;100.00;101146.72;5092242;28;20035;-71
2022/08/04 11:38:42;;;;;;;9.30;4.90;;;;;;;24.03;100.00;101147.69;5093459;28;20128;-72
2022/08/04 11:41:11;;;;;;;12.65;4.80;;;;;;;24.31;100.00;101144.91;5093071;28;20027;-72
2022/08/04 11:43:57;;;;;;;11.18;3.72;;;;;;;24.40;88.20;101143.03;5093161;28;20027;-71
2022/08/04 11:46:29;;;;;;;6.80;2.50;;;;;;;24.51;81.03;101160.19;5091711;28;20020;-73
2022/08/04 11:49:21;;;;;;;10.93;2.50;;;;;;;24.68;83.23;101161.50;5091761;28;20016;-71
2022/08/04 11:51:49;;;;;;;7.18;2.60;;;;;;;24.82;77.52;101158.69;5093069;28;20024;-71
2022/08/04 11:54:15;;;;;;;7.18;3.05;;;;;;;24.83;79.76;101143.72;5093213;28;20348;-71
2022/08/04 11:56:40;;;;;;;9.75;3.05;;;;;;;24.71;75.72;101155.34;5093233;28;20472;-70
2022/08/04 11:59:07;;;;;;;8.40;3.28;;;;;;;24.70;80.93;101156.47;5092840;28;20049;-73
2022/08/04 12:01:55;;;;;;;9.55;3.53;;;;;;;24.65;78.72;101153.84;5090598;28;20036;-72
2022/08/04 12:04:32;;;;;;;11.05;3.17;;;;;;;24.76;79.71;101144.19;5092940;28;20473;-71